Ana Sayfa
METAR-TAF:

METAR-TAF

Havaalanları :

Hartum, Sudan

Enlem: 15-36N, Boylam: 032-33E, yükseklik: 382 m

Güncel hava durumu gözlemi

Rapor saat 11:30 UTC de 11 dakika önce yapıldı.
Rüzgar güneydan 15 kt
Sıcaklık 38°C
Nem 24%
Basınç 1010 hPa
Görüş mesafesi 10 km veya daha fazla
5000 ft yükseklikte parçalı bulutlu

METAR: HSSS 251130Z 19015KT 9999 SCT050 38/14 Q1010 NOSIG

Saat: 14:41 (11:41 UTC)

Tahmin

Rapor saat 11:00 UTC de 41 dakika önce yapıldı.
Ayın 25'si saat 12 UTC'den ayın 26'si saat 18 UTC'ye kadar geçerli Tahmin
Rüzgar güneydan 8 kt ve 20 kt'a kadar ani rüzgarlar
Görüş mesafesi 10 km veya daha fazla
4000 ft yükseklikte az bulutlu
14000 ft yükseklikte parçalı bulutlu
Geçici
ayın 25'si saat 17 UTC'den ayın 25'si saat 21 UTC'ye kadar
Rüzgar değişken yönden 3 kt
Görüş mesafesi: 6000 m

TAF: HSSS 251100Z 2512/2618 18008G20KT 9999 FEW040 SCT140 TEMPO 2517/2521 6000 VRB03KT

4.000'den fazla havaalanı için hava durumu gözlemleri ve tahminleri (METAR ve TAF raporları).

Kullanılabilir istasyonlar harita üzerinde sarı ve kırmızı noktalarla gösterilir.

İstasyonun adını görmek için fareyi noktanın üzerinde gezdirin.

Sonrasında hava gözlem ve tahminlerini görmek için tıklayın.

Haritayı değiştirmek için: yaklaştırmak için siyah artı işaretli yeşil düğmeye ve uzaklaştırmak için de eksi işaretli düğmeye hızla tıklayın; bitişik haritalar için yeşil okları kullanın.


METAR-TAF: